Millenium Air

Millenium Air Since 1998



 METAR AND TAF INFORMATION
METAR FOR ESMX
ADDS - METARS form results

(0429 UTC 02 March 2021)
Data provider http://aviationweather.gov/metar/data/
 
METAR text: ESMX 020420Z AUTO 29008KT 9999 OVC007/// 03/02 Q1029
Conditions at: ESMX (VAXJO/KRONOBERG , SE) observed 0420 UTC 02 March 2021
Temperature: 3.0°C (37°F)
Dewpoint: 2.0°C (36°F) [RH = 93%]
Pressure (altimeter): 30.38 inches Hg (1029.0 mb)
Winds: from the WNW (290 degrees) at 9 MPH (8 knots; 4.1 m/s)
Visibility: 6 or more miles (10+ km)
Ceiling: 700 feet AGL
Clouds: overcast cloud deck at 700 feet AGL
Weather: no significant weather observed at this time

METAR text: ESMX 020350Z AUTO 30007KT 9999 OVC007/// 03/02 Q1029
Conditions at: ESMX (VAXJO/KRONOBERG , SE) observed 0350 UTC 02 March 2021
Temperature: 3.0°C (37°F)
Dewpoint: 2.0°C (36°F) [RH = 93%]
Pressure (altimeter): 30.38 inches Hg (1029.0 mb)
Winds: from the WNW (300 degrees) at 8 MPH (7 knots; 3.6 m/s)
Visibility: 6 or more miles (10+ km)
Ceiling: 700 feet AGL
Clouds: overcast cloud deck at 700 feet AGL
Weather: no significant weather observed at this time

 AIRPORT MAP

 RUNWAY INFORMATION
Runway 01 Runway length 6900 ft Runway width 148 ft
Runway elevation 610 ft Runway displaced threshold 0 ft Runway heading 13
Runway 19 Runway length 6900 ft Runway width 148 ft
Runway elevation 563 ft Runway displaced threshold 0 ft Runway heading 193

 AIRPORT FREQUENCIES
Type TWR Name TWR Frequency 118.15 MHZ

 AIRPORT NEAR NAVIGATION AIDS
Type NDB Name Vaxjo Frequency 349 KHZ
Type NDB Name Vaxjo Frequency 329 KHZ